Time;durP1;ratioP1;P1;durP2;ratioP2;P2;SDS_P1;SDS_P2;PMS_P1;PMS_P2;Temp;Humidity;BMP_temperature;BMP_pressure;BME280_temperature;BME280_humidity;BME280_pressure;Samples;Min_cycle;Max_cycle;Signal;HPM_P1;HPM_P2
2023/07/10 00:01:16;;;;;;;21.27;19.87;;;21.10;99.90;;;;;;5081446;28;20916;-53
2023/07/10 00:03:42;;;;;;;21.33;19.93;;;21.10;99.90;;;;;;5081362;28;20645;-51
2023/07/10 00:06:13;;;;;;;20.83;19.43;;;21.00;99.90;;;;;;5081588;28;20415;-56
2023/07/10 00:08:39;;;;;;;21.50;20.10;;;21.00;99.90;;;;;;5081452;28;20204;-53
2023/07/10 00:11:17;;;;;;;21.47;20.07;;;21.00;99.90;;;;;;5081457;28;20434;-52
2023/07/10 00:13:44;;;;;;;19.90;18.60;;;21.00;99.90;;;;;;5072966;28;20718;-51
2023/07/10 00:16:21;;;;;;;21.03;19.67;;;20.90;99.90;;;;;;5062817;28;20504;-51
2023/07/10 00:18:48;;;;;;;20.80;19.40;;;20.90;99.90;;;;;;5080888;28;20418;-54
2023/07/10 00:21:14;;;;;;;21.33;20.00;;;20.90;99.90;;;;;;5069543;28;20431;-54
2023/07/10 00:23:40;;;;;;;20.83;19.53;;;20.90;99.90;;;;;;5080883;28;20429;-51
2023/07/10 00:26:22;;;;;;;20.80;19.50;;;20.90;99.90;;;;;;5080922;28;20482;-52
2023/07/10 00:28:52;;;;;;;21.23;19.93;;;20.90;99.90;;;;;;5080438;28;20180;-50
2023/07/10 00:31:18;;;;;;;22.00;20.60;;;20.80;99.90;;;;;;5077658;28;20508;-53
2023/07/10 00:33:47;;;;;;;21.53;20.23;;;20.80;99.90;;;;;;5072375;28;20510;-54
2023/07/10 00:36:34;;;;;;;21.00;19.70;;;20.70;99.90;;;;;;5076050;28;20180;-51
2023/07/10 00:39:26;;;;;;;21.73;20.27;;;20.70;99.90;;;;;;5079755;28;20479;-56
2023/07/10 00:41:59;;;;;;;21.53;20.13;;;20.70;99.90;;;;;;5069304;28;20418;-49
2023/07/10 00:44:40;;;;;;;21.70;20.40;;;20.60;99.90;;;;;;5078969;28;20643;-50
2023/07/10 00:47:16;;;;;;;21.60;20.10;;;20.60;99.90;;;;;;5071865;28;20414;-53
2023/07/10 00:50:02;;;;;;;22.07;20.67;;;20.50;99.90;;;;;;5072774;28;20846;-54
2023/07/10 00:52:34;;;;;;;22.53;21.13;;;20.50;99.90;;;;;;5080660;28;20859;-53
2023/07/10 00:55:00;;;;;;;20.80;19.50;;;20.50;99.90;;;;;;5072289;28;20466;-48
2023/07/10 00:57:35;;;;;;;21.33;20.00;;;20.50;99.90;;;;;;5081086;28;20987;-50
2023/07/10 01:00:22;;;;;;;21.30;19.90;;;20.50;99.90;;;;;;5080520;28;20828;-52
2023/07/10 01:02:48;;;;;;;22.33;20.93;;;20.50;99.90;;;;;;5080259;28;20422;-47
2023/07/10 01:05:17;;;;;;;21.13;19.83;;;20.40;99.90;;;;;;5075452;28;20427;-51
2023/07/10 01:07:47;;;;;;;21.80;20.40;;;20.40;99.90;;;;;;5068051;28;20533;-52
2023/07/10 01:10:13;;;;;;;21.53;20.13;;;20.40;99.90;;;;;;5079611;28;20418;-50
2023/07/10 01:12:41;;;;;;;20.97;19.60;;;20.50;99.90;;;;;;5076075;28;20445;-47
2023/07/10 01:15:08;;;;;;;20.97;19.67;;;20.50;99.90;;;;;;5071335;28;20572;-53
2023/07/10 01:17:34;;;;;;;21.80;20.30;;;20.40;99.90;;;;;;5065959;28;20552;-52
2023/07/10 01:20:28;;;;;;;22.17;20.67;;;20.50;99.90;;;;;;5066330;28;20443;-52
2023/07/10 01:22:53;;;;;;;21.03;19.43;;;20.50;99.90;;;;;;5043505;28;20482;-53
2023/07/10 01:25:19;;;;;;;21.47;20.07;;;20.40;99.90;;;;;;5075070;28;20584;-54
2023/07/10 01:27:45;;;;;;;21.50;20.20;;;20.50;99.90;;;;;;5074738;28;21667;-52
2023/07/10 01:30:33;;;;;;;23.33;21.83;;;20.40;99.90;;;;;;5071161;28;20424;-49
2023/07/10 01:33:00;;;;;;;21.97;20.57;;;20.40;99.90;;;;;;5075160;28;20262;-52
2023/07/10 01:35:28;;;;;;;21.30;19.90;;;20.40;99.90;;;;;;5074003;28;20549;-49
2023/07/10 01:37:54;;;;;;;21.90;20.43;;;20.30;99.90;;;;;;5079795;28;20410;-50
2023/07/10 01:40:27;;;;;;;20.93;19.73;;;20.30;99.90;;;;;;5074646;28;20483;-58
2023/07/10 01:42:57;;;;;;;22.53;21.23;;;20.40;99.90;;;;;;5079551;28;20180;-53
2023/07/10 01:45:24;;;;;;;21.77;20.37;;;20.40;99.90;;;;;;5075459;28;20440;-49
2023/07/10 01:47:52;;;;;;;21.03;19.73;;;20.60;99.90;;;;;;5071653;28;20447;-50
2023/07/10 01:50:20;;;;;;;20.10;18.80;;;20.80;99.90;;;;;;5060028;28;20933;-52
2023/07/10 01:52:45;;;;;;;20.07;18.67;;;21.00;99.90;;;;;;5077579;28;20435;-55
2023/07/10 01:55:14;;;;;;;20.20;18.90;;;21.40;99.90;;;;;;5072243;28;21027;-52
2023/07/10 01:57:40;;;;;;;19.23;18.10;;;21.60;99.90;;;;;;5069136;28;20597;-54
2023/07/10 02:00:06;;;;;;;20.20;18.90;;;21.80;99.90;;;;;;5077010;28;20508;-50
2023/07/10 02:02:31;;;;;;;20.57;19.23;;;22.00;99.90;;;;;;5078513;28;20184;-48
2023/07/10 02:04:57;;;;;;;19.80;18.60;;;22.10;99.90;;;;;;5078048;28;20449;-50
2023/07/10 02:07:23;;;;;;;19.23;18.03;;;22.10;99.90;;;;;;5079763;28;20219;-46
2023/07/10 02:09:48;;;;;;;20.60;19.30;;;22.20;99.90;;;;;;5079130;28;20475;-53
2023/07/10 02:12:14;;;;;;;19.17;17.87;;;22.30;99.90;;;;;;5067582;28;20257;-49
2023/07/10 02:14:40;;;;;;;19.43;18.33;;;22.30;99.90;;;;;;5072697;28;20485;-47
2023/07/10 02:17:05;;;;;;;20.20;18.90;;;22.40;99.90;;;;;;5070050;28;20185;-55
2023/07/10 02:19:31;;;;;;;21.53;20.23;;;22.40;99.90;;;;;;5072435;28;20464;-51
2023/07/10 02:21:57;;;;;;;23.50;22.10;;;22.40;99.90;;;;;;5074137;28;20185;-51
2023/07/10 02:24:22;;;;;;;26.00;24.30;;;22.20;99.90;;;;;;5072215;28;20236;-49
2023/07/10 02:26:48;;;;;;;25.73;24.20;;;22.00;1.00;;;;;;5078004;28;20199;-53
2023/07/10 02:29:14;;;;;;;25.90;24.10;;;21.80;1.00;;;;;;5067948;28;20315;-54
2023/07/10 02:31:39;;;;;;;25.60;24.00;;;21.60;99.90;;;;;;5070306;28;20188;-51
2023/07/10 02:34:05;;;;;;;25.80;24.20;;;21.30;99.90;;;;;;5061810;28;20196;-52
2023/07/10 02:36:30;;;;;;;26.27;24.67;;;21.20;1.00;;;;;;5070574;28;20639;-51
2023/07/10 02:38:57;;;;;;;25.63;24.13;;;21.00;99.90;;;;;;5073010;28;20189;-51
2023/07/10 02:41:23;;;;;;;25.83;24.13;;;20.90;1.00;;;;;;5074807;28;20582;-53
2023/07/10 02:43:48;;;;;;;25.87;24.27;;;20.80;99.90;;;;;;5060599;28;21104;-51
2023/07/10 02:46:14;;;;;;;25.83;24.13;;;20.70;1.00;;;;;;5064695;28;21156;-52
2023/07/10 02:48:40;;;;;;;24.90;23.40;;;20.70;1.00;;;;;;5063986;28;20185;-45
2023/07/10 02:51:05;;;;;;;24.23;22.60;;;20.70;1.00;;;;;;5061099;28;20181;-52
2023/07/10 02:53:32;;;;;;;25.10;23.53;;;20.70;1.00;;;;;;5065718;28;20580;-52
2023/07/10 02:55:58;;;;;;;24.63;23.03;;;20.70;99.90;;;;;;5074133;28;20688;-48
2023/07/10 02:58:23;;;;;;;23.87;22.30;;;20.70;99.90;;;;;;5078925;28;20522;-53
2023/07/10 03:00:57;;;;;;;24.00;22.50;;;20.70;99.90;;;;;;5077789;28;20237;-51
2023/07/10 03:03:23;;;;;;;23.60;22.10;;;20.70;99.90;;;;;;5078992;28;20191;-52
2023/07/10 03:05:57;;;;;;;23.27;21.87;;;20.70;18.70;;;;;;5068935;28;20425;-54
2023/07/10 03:08:22;;;;;;;23.67;22.10;;;20.60;99.90;;;;;;5078680;28;20422;-52
2023/07/10 03:10:49;;;;;;;23.77;22.27;;;20.50;99.90;;;;;;5078467;28;20418;-52
2023/07/10 03:13:14;;;;;;;22.17;20.77;;;20.50;1.00;;;;;;5079742;28;20634;-52
2023/07/10 03:15:40;;;;;;;23.07;21.53;;;20.40;1.00;;;;;;5073674;28;20481;-49
2023/07/10 03:18:05;;;;;;;22.47;20.90;;;20.40;1.00;;;;;;5076243;28;20191;-54
2023/07/10 03:20:31;;;;;;;23.90;22.30;;;20.30;60.60;;;;;;5082561;28;20184;-52
2023/07/10 03:22:56;;;;;;;22.00;20.50;;;20.30;97.20;;;;;;5076773;28;20242;-52
2023/07/10 03:25:22;;;;;;;22.60;21.20;;;20.30;99.90;;;;;;5077065;28;20872;-51
2023/07/10 03:27:48;;;;;;;21.87;20.43;;;20.20;1.00;;;;;;5082447;28;20187;-52
2023/07/10 03:30:14;;;;;;;22.40;20.90;;;20.20;99.90;;;;;;5082363;28;20571;-54
2023/07/10 03:32:40;;;;;;;22.80;21.30;;;20.10;99.90;;;;;;5082205;28;20918;-51
2023/07/10 03:35:06;;;;;;;23.50;22.00;;;20.10;19.60;;;;;;5080381;28;20239;-55
2023/07/10 03:37:31;;;;;;;22.70;21.20;;;20.10;99.90;;;;;;5082140;28;20185;-51
2023/07/10 03:39:57;;;;;;;22.93;21.33;;;20.10;1.00;;;;;;5070086;28;20426;-52
2023/07/10 03:42:23;;;;;;;21.70;20.30;;;20.10;1.00;;;;;;5081685;28;20188;-53
2023/07/10 03:44:48;;;;;;;22.17;20.70;;;20.00;1.00;;;;;;5078495;28;20671;-49
2023/07/10 03:47:14;;;;;;;22.20;20.70;;;20.00;1.00;;;;;;5069841;28;20670;-56
2023/07/10 03:49:39;;;;;;;22.83;21.27;;;20.00;1.00;;;;;;5074912;28;20554;-50
2023/07/10 03:52:05;;;;;;;22.77;21.27;;;20.00;99.90;;;;;;5074614;28;20196;-50
2023/07/10 03:54:35;;;;;;;22.37;20.87;;;20.10;99.90;;;;;;5070858;28;20213;-50
2023/07/10 03:57:01;;;;;;;23.00;21.50;;;20.00;44.10;;;;;;5076407;28;20280;-52
2023/07/10 03:59:26;;;;;;;22.40;20.90;;;20.10;1.00;;;;;;5072787;28;20435;-48
2023/07/10 04:01:52;;;;;;;21.30;19.77;;;20.20;1.00;;;;;;5070064;28;20639;-47
2023/07/10 04:04:17;;;;;;;21.73;20.23;;;20.30;89.40;;;;;;5076146;28;20189;-50
2023/07/10 04:06:43;;;;;;;21.70;20.30;;;20.30;99.90;;;;;;5068148;28;20200;-50
2023/07/10 04:09:09;;;;;;;20.43;19.13;;;20.40;1.00;;;;;;5081368;28;20271;-51
2023/07/10 04:11:34;;;;;;;20.60;19.30;;;20.40;99.90;;;;;;5076184;28;20207;-45
2023/07/10 04:14:00;;;;;;;20.90;19.50;;;20.50;32.30;;;;;;5078450;28;20185;-53
2023/07/10 04:16:28;;;;;;;21.70;20.40;;;20.50;21.60;;;;;;5072649;28;20224;-48
2023/07/10 04:18:54;;;;;;;21.70;20.30;;;20.50;1.00;;;;;;5068456;28;20180;-51
2023/07/10 04:21:31;;;;;;;21.87;20.40;;;20.60;99.90;;;;;;5068247;28;20439;-48
2023/07/10 04:23:57;;;;;;;20.70;19.40;;;20.60;1.00;;;;;;5073187;28;20437;-58
2023/07/10 04:26:29;;;;;;;22.37;20.60;;;20.70;1.00;;;;;;5069235;28;20518;-51
2023/07/10 04:28:57;;;;;;;21.50;20.10;;;20.70;1.00;;;;;;5076261;28;20431;-50
2023/07/10 04:31:24;;;;;;;21.23;19.90;;;20.80;1.00;;;;;;5077369;28;20450;-41
2023/07/10 04:33:51;;;;;;;21.43;20.03;;;20.90;1.00;;;;;;5069166;28;20431;-47
2023/07/10 04:36:18;;;;;;;21.37;19.97;;;20.90;1.00;;;;;;5071211;28;20440;-48
2023/07/10 04:38:43;;;;;;;22.40;20.70;;;21.00;1.00;;;;;;5073309;28;20439;-45
2023/07/10 04:41:12;;;;;;;20.77;19.40;;;21.00;1.00;;;;;;5073869;28;21011;-45
2023/07/10 04:43:38;;;;;;;21.63;20.23;;;21.10;99.90;;;;;;5080746;28;20527;-43
2023/07/10 04:46:07;;;;;;;20.83;19.43;;;21.10;99.90;;;;;;5080778;28;20479;-46
2023/07/10 04:48:33;;;;;;;21.37;19.87;;;21.10;99.90;;;;;;5079520;28;20458;-43
2023/07/10 04:51:03;;;;;;;20.13;18.90;;;21.10;99.90;;;;;;5063757;28;20478;-43
2023/07/10 04:53:30;;;;;;;20.30;19.00;;;21.10;99.90;;;;;;5061377;28;20418;-43
2023/07/10 04:55:56;;;;;;;20.90;19.60;;;21.20;99.90;;;;;;5074448;28;20484;-44
2023/07/10 04:58:25;;;;;;;21.83;20.43;;;21.20;99.90;;;;;;5079281;28;20521;-45
2023/07/10 05:00:55;;;;;;;20.33;19.03;;;21.20;99.90;;;;;;5068492;28;20930;-42
2023/07/10 05:03:21;;;;;;;22.00;20.37;;;21.20;99.90;;;;;;5080268;28;20414;-45
2023/07/10 05:05:58;;;;;;;21.63;20.27;;;21.30;99.90;;;;;;5080542;28;20904;-46
2023/07/10 05:08:25;;;;;;;21.17;19.77;;;21.30;99.90;;;;;;5070076;28;20202;-43
2023/07/10 05:10:51;;;;;;;20.30;19.00;;;21.40;77.40;;;;;;5080145;28;20763;-45
2023/07/10 05:13:22;;;;;;;20.30;19.10;;;21.50;26.70;;;;;;5079974;28;20747;-46
2023/07/10 05:15:48;;;;;;;20.87;19.57;;;21.60;1.00;;;;;;5080298;28;20515;-47
2023/07/10 05:18:14;;;;;;;21.80;20.30;;;21.70;1.00;;;;;;5080189;28;20418;-46
2023/07/10 05:20:43;;;;;;;21.80;20.40;;;21.80;1.00;;;;;;5080142;28;20510;-43
2023/07/10 05:23:09;;;;;;;21.40;20.00;;;21.90;1.00;;;;;;5070808;28;20443;-44
2023/07/10 05:25:34;;;;;;;21.03;19.73;;;22.00;1.00;;;;;;5078543;28;20848;-47
2023/07/10 05:28:01;;;;;;;21.80;20.30;;;22.10;1.00;;;;;;5079951;28;20189;-44
2023/07/10 05:30:27;;;;;;;21.50;20.10;;;22.20;1.00;;;;;;5075852;28;20181;-45
2023/07/10 05:32:53;;;;;;;21.27;19.80;;;22.20;1.00;;;;;;5062917;28;20443;-45
2023/07/10 05:35:19;;;;;;;21.73;20.33;;;22.40;1.00;;;;;;5064089;28;20463;-45
2023/07/10 05:37:45;;;;;;;22.80;21.40;;;22.30;1.00;;;;;;5076671;28;20825;-44
2023/07/10 05:40:10;;;;;;;22.07;20.77;;;22.30;1.00;;;;;;5075273;28;20674;-48
2023/07/10 05:42:38;;;;;;;20.40;19.20;;;22.40;1.00;;;;;;5079499;28;20286;-44
2023/07/10 05:45:04;;;;;;;21.20;19.80;;;22.40;1.00;;;;;;5080023;28;20212;-46
2023/07/10 05:47:30;;;;;;;22.57;21.17;;;22.40;1.00;;;;;;5079918;28;20435;-45
2023/07/10 05:49:56;;;;;;;21.80;20.40;;;22.40;1.00;;;;;;5079958;28;20423;-49
2023/07/10 05:52:21;;;;;;;21.40;20.10;;;22.50;1.00;;;;;;5078546;28;20679;-44
2023/07/10 05:54:47;;;;;;;20.60;19.30;;;22.50;1.00;;;;;;5071935;28;20571;-43
2023/07/10 05:57:12;;;;;;;20.30;19.00;;;22.40;1.00;;;;;;5079317;28;20195;-42
2023/07/10 05:59:38;;;;;;;22.30;20.90;;;22.40;1.00;;;;;;5075483;28;20195;-48
2023/07/10 06:02:04;;;;;;;22.07;20.67;;;22.40;1.00;;;;;;5070845;28;20652;-45
2023/07/10 06:04:29;;;;;;;21.17;19.73;;;22.50;1.00;;;;;;5079571;28;20196;-44
2023/07/10 06:06:55;;;;;;;21.37;20.07;;;22.60;1.00;;;;;;5073319;28;20184;-42
2023/07/10 06:09:21;;;;;;;21.97;20.47;;;22.60;1.00;;;;;;5079427;28;20655;-42
2023/07/10 06:11:46;;;;;;;21.53;20.13;;;22.60;1.00;;;;;;5079111;28;20199;-47
2023/07/10 06:14:12;;;;;;;21.50;20.20;;;22.60;1.00;;;;;;5079383;28;20230;-47
2023/07/10 06:16:37;;;;;;;21.17;19.80;;;22.70;1.00;;;;;;5079279;28;20240;-42
2023/07/10 06:19:03;;;;;;;21.03;19.73;;;22.70;1.00;;;;;;5079264;28;20259;-43
2023/07/10 06:21:29;;;;;;;21.87;20.10;;;22.70;1.00;;;;;;5078879;28;21297;-44
2023/07/10 06:23:54;;;;;;;21.53;20.03;;;22.80;1.00;;;;;;5077338;28;20913;-46
2023/07/10 06:26:20;;;;;;;21.80;20.40;;;22.80;1.00;;;;;;5073870;28;20265;-42
2023/07/10 06:28:45;;;;;;;21.80;20.30;;;22.80;1.00;;;;;;5065647;28;20185;-43
2023/07/10 06:31:11;;;;;;;21.00;19.40;;;22.70;1.00;;;;;;5068633;28;20584;-46
2023/07/10 06:33:38;;;;;;;20.93;19.67;;;22.60;1.00;;;;;;5075177;28;20192;-41
2023/07/10 06:36:05;;;;;;;19.47;18.17;;;22.60;1.00;;;;;;5065938;28;20223;-44
2023/07/10 06:38:32;;;;;;;20.67;19.30;;;22.70;1.00;;;;;;5072087;28;20431;-45
2023/07/10 06:40:58;;;;;;;20.77;19.47;;;22.80;1.00;;;;;;5077530;28;20442;-43
2023/07/10 06:43:24;;;;;;;20.37;19.07;;;23.00;1.00;;;;;;5078822;28;21129;-47
2023/07/10 06:45:50;;;;;;;20.50;19.00;;;23.10;1.00;;;;;;5079131;28;20188;-45
2023/07/10 06:48:16;;;;;;;20.30;18.90;;;23.40;1.00;;;;;;5080493;28;20959;-45
2023/07/10 06:50:55;;;;;;;18.50;17.40;;;23.60;1.00;;;;;;5082891;28;20414;-48
2023/07/10 06:53:21;;;;;;;19.27;18.07;;;23.80;1.00;;;;;;5077978;28;20472;-46
2023/07/10 06:55:58;;;;;;;20.03;18.73;;;24.10;1.00;;;;;;5080841;28;20476;-46
2023/07/10 06:58:24;;;;;;;19.10;17.80;;;24.50;1.00;;;;;;5083155;28;20437;-45
2023/07/10 07:00:50;;;;;;;19.50;18.20;;;24.70;1.00;;;;;;5077805;28;20795;-46
2023/07/10 07:03:15;;;;;;;19.93;18.60;;;25.10;1.00;;;;;;5074949;28;20442;-42
2023/07/10 07:05:44;;;;;;;19.20;18.10;;;25.40;1.00;;;;;;5080078;28;20586;-43
2023/07/10 07:08:10;;;;;;;18.43;17.43;;;25.70;1.00;;;;;;5075481;28;20196;-47
2023/07/10 07:10:40;;;;;;;19.70;18.50;;;26.00;1.00;;;;;;5082620;28;20437;-50
2023/07/10 07:13:06;;;;;;;18.03;17.00;;;26.20;99.90;;;;;;5082583;28;20864;-52
2023/07/10 07:15:32;;;;;;;20.60;19.40;;;26.50;99.90;;;;;;5082545;28;20454;-47
2023/07/10 07:17:57;;;;;;;18.00;17.00;;;26.50;99.90;;;;;;5082484;28;20184;-44
2023/07/10 07:20:23;;;;;;;17.77;16.77;;;26.50;99.90;;;;;;5082600;28;20652;-46
2023/07/10 07:22:48;;;;;;;18.00;16.90;;;26.60;99.90;;;;;;5082338;28;20184;-46
2023/07/10 07:25:14;;;;;;;17.20;16.10;;;26.70;99.90;;;;;;5082401;28;20232;-48
2023/07/10 07:27:40;;;;;;;19.07;17.97;;;26.60;99.90;;;;;;5082371;28;20677;-46
2023/07/10 07:30:06;;;;;;;19.70;18.50;;;26.60;99.90;;;;;;5067411;28;20284;-50
2023/07/10 07:32:32;;;;;;;17.33;16.33;;;26.50;99.90;;;;;;5063019;28;20193;-44
2023/07/10 07:34:58;;;;;;;18.93;17.70;;;26.50;99.90;;;;;;5081000;28;20458;-45
2023/07/10 07:37:23;;;;;;;18.80;17.70;;;26.50;99.90;;;;;;5082112;28;20295;-45
2023/07/10 07:39:49;;;;;;;18.73;17.63;;;26.60;99.90;;;;;;5081537;28;20183;-45
2023/07/10 07:42:14;;;;;;;19.50;18.40;;;26.60;99.90;;;;;;5081839;28;20188;-51
2023/07/10 07:44:41;;;;;;;19.20;18.10;;;26.60;99.90;;;;;;5080543;28;20535;-46
2023/07/10 07:47:07;;;;;;;19.50;18.40;;;26.70;99.90;;;;;;5082373;28;20223;-46
2023/07/10 07:49:32;;;;;;;19.43;18.23;;;26.80;99.90;;;;;;5082119;28;20509;-46
2023/07/10 07:51:58;;;;;;;17.20;16.20;;;27.00;99.90;;;;;;5082016;28;20196;-47
2023/07/10 07:54:24;;;;;;;18.23;17.13;;;27.10;99.90;;;;;;5072672;28;20737;-46
2023/07/10 07:56:49;;;;;;;18.97;17.87;;;27.40;99.90;;;;;;5081888;28;20262;-46
2023/07/10 07:59:17;;;;;;;17.47;16.47;;;27.30;99.90;;;;;;5069143;28;20196;-47
2023/07/10 08:01:43;;;;;;;17.83;16.83;;;27.40;99.90;;;;;;5074394;28;20203;-45
2023/07/10 08:04:09;;;;;;;18.80;17.70;;;27.40;99.90;;;;;;5081792;28;20822;-47
2023/07/10 08:06:35;;;;;;;18.67;17.67;;;27.10;99.90;;;;;;5081036;28;20187;-46
2023/07/10 08:09:02;;;;;;;19.20;18.00;;;27.10;99.90;;;;;;5081170;28;20515;-45
2023/07/10 08:11:28;;;;;;;18.70;17.60;;;27.20;99.90;;;;;;5081532;28;20180;-45
2023/07/10 08:13:53;;;;;;;19.40;18.20;;;27.20;99.90;;;;;;5081061;28;20449;-45
2023/07/10 08:16:19;;;;;;;19.73;18.63;;;27.30;99.90;;;;;;5081262;28;20204;-48
2023/07/10 08:18:45;;;;;;;18.93;17.83;;;27.40;99.90;;;;;;5072362;28;20185;-43
2023/07/10 08:21:15;;;;;;;20.13;19.00;;;27.60;99.90;;;;;;5081434;28;20956;-47
2023/07/10 08:23:40;;;;;;;19.13;18.13;;;27.80;99.90;;;;;;5081662;28;20430;-44
2023/07/10 08:26:07;;;;;;;19.20;18.10;;;27.90;99.90;;;;;;5080944;28;20482;-45
2023/07/10 08:28:33;;;;;;;18.77;17.57;;;28.00;99.90;;;;;;5066763;28;20193;-44
2023/07/10 08:30:59;;;;;;;18.10;16.87;;;28.20;99.90;;;;;;5065736;28;20438;-46
2023/07/10 08:33:25;;;;;;;18.80;17.80;;;28.30;99.90;;;;;;5075922;28;21094;-46
2023/07/10 08:36:02;;;;;;;18.53;17.53;;;28.40;99.90;;;;;;5080969;28;20943;-47
2023/07/10 08:38:28;;;;;;;18.97;17.87;;;28.60;99.90;;;;;;5074376;28;20276;-49
2023/07/10 08:40:58;;;;;;;17.80;16.80;;;28.70;99.90;;;;;;5079219;28;20912;-44
2023/07/10 08:43:31;;;;;;;18.70;17.60;;;28.90;99.90;;;;;;5069929;28;20505;-45
2023/07/10 08:46:16;;;;;;;18.80;17.70;;;29.00;99.90;;;;;;5080896;28;20813;-47
2023/07/10 08:49:03;;;;;;;18.90;17.70;;;29.20;99.90;;;;;;5081025;28;20450;-44
2023/07/10 08:51:53;;;;;;;18.70;17.60;;;29.40;99.90;;;;;;5080725;28;20843;-47
2023/07/10 08:54:18;;;;;;;19.40;18.13;;;29.50;99.90;;;;;;5070797;28;20424;-45
2023/07/10 08:57:19;;;;;;;16.20;15.30;;;29.70;99.90;;;;;;5078977;28;20811;-50
2023/07/10 09:00:01;;;;;;;18.50;17.50;;;30.10;99.90;;;;;;5071546;28;20236;-46
2023/07/10 09:02:43;;;;;;;18.10;17.10;;;30.60;99.90;;;;;;5078928;28;20458;-47
2023/07/10 09:05:32;;;;;;;18.23;17.20;;;30.90;99.90;;;;;;5080116;28;20422;-47
2023/07/10 09:08:03;;;;;;;18.13;17.17;;;31.30;99.90;;;;;;5080153;28;20419;-48
2023/07/10 09:10:43;;;;;;;17.87;16.87;;;31.70;99.90;;;;;;5079525;28;20576;-49
2023/07/10 09:13:46;;;;;;;18.17;17.07;;;31.80;99.90;;;;;;5080218;28;20927;-44
2023/07/10 09:16:18;;;;;;;17.60;16.47;;;31.90;99.90;;;;;;5080133;28;20858;-47
2023/07/10 09:18:49;;;;;;;19.00;18.00;;;31.90;99.90;;;;;;5079283;28;20932;-44
2023/07/10 09:21:18;;;;;;;17.30;16.33;;;31.90;99.90;;;;;;5072901;28;20407;-48
2023/07/10 09:23:46;;;;;;;18.53;17.53;;;31.80;99.90;;;;;;5078467;28;20909;-43
2023/07/10 09:26:18;;;;;;;17.60;16.60;;;31.60;99.90;;;;;;5079635;28;20455;-43
2023/07/10 09:29:04;;;;;;;18.60;17.60;;;31.70;99.90;;;;;;5079438;28;20452;-43
2023/07/10 09:31:48;;;;;;;17.27;16.37;;;31.60;99.90;;;;;;5071037;28;20400;-46
2023/07/10 09:34:13;;;;;;;18.33;17.33;;;31.70;99.90;;;;;;5073428;28;20429;-42
2023/07/10 09:36:39;;;;;;;18.30;17.30;;;31.80;99.90;;;;;;5079576;28;20808;-44
2023/07/10 09:39:05;;;;;;;17.47;16.47;;;31.90;99.90;;;;;;5073755;28;20388;-50
2023/07/10 09:41:31;;;;;;;19.57;18.57;;;31.90;99.90;;;;;;5079536;28;20181;-46
2023/07/10 09:43:59;;;;;;;17.80;16.87;;;31.90;99.90;;;;;;5079818;28;20411;-44
2023/07/10 09:46:30;;;;;;;19.00;17.80;;;32.20;99.90;;;;;;5079470;28;20654;-46
2023/07/10 09:48:59;;;;;;;17.40;16.50;;;32.40;99.90;;;;;;5079518;28;21325;-44
2023/07/10 09:51:28;;;;;;;18.77;17.77;;;33.10;99.90;;;;;;5080139;28;20752;-48
2023/07/10 09:54:03;;;;;;;18.17;17.20;;;33.60;99.90;;;;;;5071968;28;20548;-49
2023/07/10 09:56:38;;;;;;;17.70;16.60;;;34.10;99.90;;;;;;5070426;28;20461;-46
2023/07/10 09:59:27;;;;;;;18.43;17.50;;;34.40;99.90;;;;;;5077368;28;20414;-48
2023/07/10 10:01:54;;;;;;;17.30;16.40;;;34.60;99.90;;;;;;5079000;28;20483;-46
2023/07/10 10:04:31;;;;;;;17.73;16.73;;;35.10;99.90;;;;;;5079432;28;20819;-45
2023/07/10 10:07:05;;;;;;;18.00;17.10;;;35.90;99.90;;;;;;5075461;28;20501;-49
2023/07/10 10:09:32;;;;;;;17.80;16.80;;;36.60;99.90;;;;;;5079739;28;20525;-45
2023/07/10 10:12:12;;;;;;;18.37;17.37;;;37.10;99.90;;;;;;5079440;28;20437;-48
2023/07/10 10:14:42;;;;;;;19.67;18.57;;;37.30;99.90;;;;;;5078469;28;20504;-44
2023/07/10 10:17:13;;;;;;;18.40;17.30;;;36.80;99.90;;;;;;5078967;28;20425;-45
2023/07/10 10:19:43;;;;;;;18.10;17.20;;;36.80;99.90;;;;;;5078868;28;20418;-49
2023/07/10 10:22:11;;;;;;;19.03;17.97;;;36.80;99.90;;;;;;5074044;28;20966;-46
2023/07/10 10:24:36;;;;;;;19.30;18.20;;;37.00;99.90;;;;;;5072016;28;20478;-45
2023/07/10 10:27:20;;;;;;;19.70;18.70;;;37.20;99.90;;;;;;5067324;28;20782;-49
2023/07/10 10:29:55;;;;;;;18.53;17.57;;;37.50;99.90;;;;;;5078833;28;20218;-48
2023/07/10 10:33:13;;;;;;;18.80;17.73;;;38.10;99.90;;;;;;5078909;28;20457;-48
2023/07/10 10:35:48;;;;;;;18.50;17.53;;;38.70;99.90;;;;;;5055292;28;20492;-47
2023/07/10 10:38:20;;;;;;;18.67;17.67;;;39.40;99.90;;;;;;5072807;28;20932;-43
2023/07/10 10:41:13;;;;;;;17.87;16.93;;;39.80;99.90;;;;;;5079554;28;20456;-45
2023/07/10 10:43:51;;;;;;;18.20;17.30;;;39.90;99.90;;;;;;5078799;28;20415;-51
2023/07/10 10:46:32;;;;;;;18.20;17.20;;;40.00;99.90;;;;;;5078557;28;20580;-50
2023/07/10 10:49:01;;;;;;;19.00;17.97;;;39.90;99.90;;;;;;5067575;28;20415;-47
2023/07/10 10:51:42;;;;;;;18.80;17.80;;;40.20;99.90;;;;;;5073068;28;20431;-46
2023/07/10 10:54:18;;;;;;;18.13;17.23;;;40.50;99.90;;;;;;5067083;28;20406;-50
2023/07/10 10:57:02;;;;;;;19.27;18.17;;;40.60;99.90;;;;;;5078736;28;20912;-45
2023/07/10 11:00:09;;;;;;;18.23;17.33;;;40.70;99.90;;;;;;5079232;28;20418;-45
2023/07/10 11:03:12;;;;;;;17.50;16.67;;;40.50;99.90;;;;;;5065867;28;20438;-49
2023/07/10 11:05:49;;;;;;;18.47;17.47;;;40.70;99.90;;;;;;5079014;28;20732;-44
2023/07/10 11:08:27;;;;;;;18.23;17.23;;;40.80;99.90;;;;;;5078646;28;20426;-49
2023/07/10 11:10:54;;;;;;;18.23;16.93;;;40.90;99.90;;;;;;5067009;28;21014;-49
2023/07/10 11:13:34;;;;;;;19.07;17.97;;;41.00;99.90;;;;;;5078516;28;20433;-46
2023/07/10 11:16:06;;;;;;;19.87;18.50;;;40.00;99.90;;;;;;5078700;28;20775;-44
2023/07/10 11:18:33;;;;;;;19.17;18.00;;;39.10;99.90;;;;;;5078405;28;20534;-45
2023/07/10 11:21:01;;;;;;;19.03;17.83;;;38.10;99.90;;;;;;5075844;28;20438;-46
2023/07/10 11:23:51;;;;;;;18.33;17.23;;;37.30;99.90;;;;;;5078744;28;20429;-43
2023/07/10 11:26:22;;;;;;;20.97;19.77;;;36.60;99.90;;;;;;5058585;28;21216;-47
2023/07/10 11:29:17;;;;;;;21.03;19.73;;;36.40;99.90;;;;;;5058630;28;20768;-45
2023/07/10 11:31:55;;;;;;;22.13;20.93;;;35.60;99.90;;;;;;5050618;28;20463;-43
2023/07/10 11:34:29;;;;;;;21.77;20.17;;;35.50;99.90;;;;;;5059612;28;20529;-45
2023/07/10 11:36:56;;;;;;;22.43;21.03;;;35.80;99.90;;;;;;5061819;28;20484;-50
2023/07/10 11:39:34;;;;;;;22.20;20.80;;;36.30;99.90;;;;;;5055387;28;20455;-43
2023/07/10 11:42:02;;;;;;;22.80;21.33;;;36.30;99.90;;;;;;5060696;28;20454;-46
2023/07/10 11:44:34;;;;;;;23.53;22.10;;;36.10;99.90;;;;;;5052023;28;20431;-47
2023/07/10 11:47:05;;;;;;;21.63;20.17;;;35.80;99.90;;;;;;5061569;28;20404;-50
2023/07/10 11:49:40;;;;;;;21.20;19.83;;;35.80;99.90;;;;;;5061832;28;20426;-46
2023/07/10 11:52:14;;;;;;;23.03;21.53;;;35.60;99.90;;;;;;5061753;28;20898;-49
2023/07/10 11:54:48;;;;;;;22.43;21.07;;;35.50;99.90;;;;;;5054344;28;20447;-47
2023/07/10 11:57:15;;;;;;;22.63;21.13;;;35.40;99.90;;;;;;5061323;28;20418;-43
2023/07/10 11:59:54;;;;;;;22.50;21.10;;;35.60;99.90;;;;;;5060703;28;21231;-45
2023/07/10 12:02:23;;;;;;;21.70;20.50;;;36.10;99.90;;;;;;5061599;28;20529;-45
2023/07/10 12:04:49;;;;;;;21.23;20.03;;;36.80;99.90;;;;;;5061599;28;20979;-46
2023/07/10 12:07:14;;;;;;;22.50;21.20;;;37.30;99.90;;;;;;5050102;28;20474;-45
2023/07/10 12:09:40;;;;;;;22.10;20.90;;;37.80;99.90;;;;;;5054410;28;21295;-48
2023/07/10 12:12:10;;;;;;;22.13;20.93;;;38.00;99.90;;;;;;5059775;28;20189;-45
2023/07/10 12:14:36;;;;;;;21.87;20.60;;;38.00;99.90;;;;;;5061511;28;20193;-47
2023/07/10 12:17:06;;;;;;;22.10;20.70;;;38.30;99.90;;;;;;5061386;28;20430;-47
2023/07/10 12:19:38;;;;;;;20.33;19.13;;;38.60;99.90;;;;;;5061049;28;20177;-46
2023/07/10 12:22:12;;;;;;;21.80;20.50;;;39.00;99.90;;;;;;5061602;28;20418;-45
2023/07/10 12:24:45;;;;;;;21.50;20.00;;;39.40;99.90;;;;;;5067748;28;20569;-47
2023/07/10 12:27:12;;;;;;;20.80;19.60;;;39.70;99.90;;;;;;5070288;28;20801;-46
2023/07/10 12:29:47;;;;;;;21.50;20.30;;;39.80;99.90;;;;;;5081224;28;20854;-48
2023/07/10 12:32:14;;;;;;;21.37;20.20;;;39.80;99.90;;;;;;5070989;28;20911;-45
2023/07/10 12:34:40;;;;;;;21.67;20.20;;;40.20;99.90;;;;;;5080851;28;21107;-46
2023/07/10 12:37:12;;;;;;;20.73;19.53;;;40.30;99.90;;;;;;5071030;28;20517;-47
2023/07/10 12:39:38;;;;;;;21.37;20.27;;;40.50;99.90;;;;;;5074103;28;20230;-44
2023/07/10 12:42:24;;;;;;;20.30;19.30;;;40.30;99.90;;;;;;5080906;28;20418;-51